• Join FlightAware (Why Join?)
  • Login
  • US Flag 
06:31AM EST


 

Airport Tracker/Info


-or-


 

Live Flight TrackerFlight Track Log ✈ SWA2353 ✈ 09-May-2013 ✈ KSTL - KBWI

Flight Track Log - Related Links

Times and Time Zones

All times are in EDT time to prevent confusion due to time zone crossing. See the SWA2353 flight status page for this flight to view local times or setup timezone preferences in your user account.

Time Position Orientation Groundspeed Altitude Reporting Facility
EDT Latitude Longitude Course Direction KTS MPH feet Rate Location/Type
11:25PM 38.7911 -90.3908 323° Northwest 186 214 3,800  Level Kansas City Center
11:26PM 38.8558 -90.4081 348° North 244 281 6,900 3,600 Climbing Kansas City Center
11:27PM 38.8811 -90.3089 72° East 303 349 11,300 4,200 Climbing Kansas City Center
11:28PM 38.8633 -90.1589 99° East 354 407 15,500 4,320 Climbing Kansas City Center
11:29PM 38.8489 -90.0228 98° East 376 433 20,100 3,660 Climbing Kansas City Center
11:30PM 38.8232 -89.5089 83° East  Level Estimated
11:30PM 38.8364 -89.9044 98° East 389 448 23,000  Level Kansas City Center
11:31PM 38.8208 -89.7589 98° East 403 464 26,000 2,700 Climbing Kansas City Center
11:32PM 38.7992 -89.5683 98° East 437 503 28,600 2,160 Climbing Kansas City Center
11:33PM 38.8064 -89.3986 87° East 478 550 30,400 1,800 Climbing Kansas City Center
11:34PM 38.8294 -89.2219 80° East 499 574 32,300 1,980 Climbing Kansas City Center
11:35PM 38.8525 -89.0389 81° East 516 594 34,500 1,980 Climbing Kansas City Center
11:36PM 38.8778 -88.8614 80° East 520 598 36,400 1,740 Climbing Kansas City Center
11:37PM 38.9011 -88.6767 81° East 525 604 38,100 1,260 Climbing Kansas City Center
11:38PM 38.9244 -88.4831 81° East 499 574 39,000 1,320 Climbing Kansas City Center
11:39PM 38.9542 -88.3589 73° East 470 541 40,800 960 Climbing Indianapolis Center
11:40PM 39.0075 -88.1703 70° East 465 535 41,000 60 Climbing Indianapolis Center
11:41PM 39.0514 -88.0119 70° East 467 537 41,000  Level Indianapolis Center
11:42PM 39.0958 -87.8522 70° East 469 540 41,000  Level Indianapolis Center
11:43PM 39.1392 -87.6928 71° East 469 540 41,000  Level Indianapolis Center
11:44PM 39.1831 -87.5319 71° East 471 542 41,000  Level Indianapolis Center
11:45PM 39.2267 -87.3742 70° East 470 541 41,000  Level Indianapolis Center
11:46PM 39.2689 -87.2158 71° East 470 541 41,000  Level Indianapolis Center
11:47PM 39.3122 -87.0572 71° East 471 542 41,000  Level Indianapolis Center
11:48PM 39.3533 -86.9006 71° East 465 535 41,000  Level Indianapolis Center
11:49PM 39.3944 -86.7439 71° East 462 532 41,000  Level Indianapolis Center
11:50PM 39.4350 -86.5892 71° East 460 529 41,000  Level Indianapolis Center
11:51PM 39.4836 -86.4019 71° East 462 532 41,000  Level Indianapolis Center
11:52PM 39.5244 -86.2469 71° East 463 533 41,000  Level Indianapolis Center
11:53PM 39.5639 -86.0917 72° East 465 535 41,000  Level Indianapolis Center
11:54PM 39.6028 -85.9361 72° East 470 541 41,000  Level Indianapolis Center
11:55PM 39.6428 -85.7725 72° East 471 542 41,000  Level Indianapolis Center
11:56PM 39.6753 -85.6075 76° East 475 547 41,000  Level Indianapolis Center
11:57PM 39.7075 -85.4417 76° East 476 548 41,000  Level Indianapolis Center
11:58PM 39.7469 -85.2411 76° East 479 551 41,000  Level Indianapolis Center
11:59PM 39.7786 -85.0717 76° East 486 559 41,000  Level Indianapolis Center
12:00AM 39.8122 -84.8928 76° East 489 563 41,000  Level Indianapolis Center
12:01AM 39.8386 -84.7186 79° East 488 562 41,000  Level Indianapolis Center
12:02AM 39.8400 -84.5392 89° East 492 566 41,000  Level Indianapolis Center
12:03AM 39.8444 -84.3614 88° East 489 563 41,000  Level Indianapolis Center
12:04AM 39.8481 -84.1861 88° East 480 552 41,000  Level Indianapolis Center
12:05AM 39.8517 -84.0122 88° East 477 549 41,000  Level Indianapolis Center
12:06AM 39.8544 -83.8461 89° East 479 551 41,000  Level Indianapolis Center
12:07AM 39.8564 -83.6664 89° East 472 543 41,000  Level Indianapolis Center
12:08AM 39.8589 -83.5067 89° East 468 539 41,000  Level Indianapolis Center
12:09AM 39.8622 -83.3392 88° East 464 534 41,000  Level Indianapolis Center
12:10AM 39.8647 -83.1756 89° East 460 529 41,000  Level Indianapolis Center
12:12AM 39.8669 -83.0081 89° East 459 528 41,000  Level Indianapolis Center
12:13AM 39.8686 -82.8408 89° East 459 528 41,000  Level Indianapolis Center
12:14AM 39.8697 -82.6733 89° East 462 532 41,000  Level Indianapolis Center
12:15AM 39.8703 -82.5039 90° East 465 535 41,000  Level Indianapolis Center
12:16AM 39.8661 -82.3036 91° East 466 536 41,000  Level Indianapolis Center
12:17AM 39.8481 -82.1314 98° East 474 545 41,000  Level Indianapolis Center
12:18AM 39.8331 -81.9586 96° East 478 550 41,000  Level Indianapolis Center
12:19AM 39.8178 -81.7856 97° East 478 550 41,000  Level Indianapolis Center
12:20AM 39.8011 -81.6114 97° East 480 552 41,000  Level Indianapolis Center
12:20AM 39.7883 -81.5017 99° East 479 551 41,000  Level Cleveland Center
12:21AM 39.7789 -81.3422 94° East 484 557 41,000  Level Cleveland Center
12:22AM 39.7614 -81.1717 98° East 484 557 41,000  Level Cleveland Center
12:23AM 39.7433 -81.0014 98° East 484 557 41,000  Level Cleveland Center
12:24AM 39.7272 -80.8314 97° East 484 557 41,000  Level Cleveland Center
12:25AM 39.7086 -80.6614 98° East 484 557 41,000  Level Cleveland Center
12:26AM 39.6919 -80.4833 97° East 484 557 41,000  Level Cleveland Center
12:27AM 39.6750 -80.3106 97° East 484 557 41,000  Level Cleveland Center
12:28AM 39.6578 -80.1381 97° East 484 557 41,000  Level Cleveland Center
12:30AM 39.6161 -79.7753 98° East 483 556 41,000  Level Washington Center
12:31AM 39.5969 -79.6044 98° East 483 556 41,000  Level Washington Center
12:32AM 39.5775 -79.4283 98° East 483 556 41,000 -60 Level Washington Center
12:33AM 39.5542 -79.2439 99° East 483 556 40,900 -1,140 Descending Washington Center
12:34AM 39.5383 -79.0792 97° East 483 556 38,700 -2,400 Descending Washington Center
12:35AM 39.5181 -78.9114 99° East 478 550 36,100 -3,120 Descending Washington Center
12:36AM 39.4975 -78.7408 99° East 478 550 32,700 -3,600 Descending Washington Center
12:37AM 39.4747 -78.5706 100° East 478 550 28,900 -3,540 Descending Washington Center
12:38AM 39.4539 -78.3975 99° East 478 550 25,600 -3,240 Descending Washington Center
12:39AM 39.4344 -78.2408 99° East 473 544 22,600 -2,940 Descending Washington Center
12:40AM 39.4150 -78.0844 99° East 453 521 19,700 -2,640 Descending Washington Center
12:41AM 39.3986 -77.9658 100° East 433 498 17,400 -2,460 Descending Washington Center
12:42AM 39.3936 -77.7936 92° East 416 479 15,000 -1,200 Descending Washington Center
12:43AM 39.4042 -77.6706 84° East 389 448 15,000 -180 Level Washington Center
12:44AM 39.3875 -77.5358 99° East 384 442 14,700 -1,140 Descending Washington Center
12:45AM 39.3667 -77.4167 103° East 391 450 13,000 -2,100 Descending Potomac TRACON
12:46AM 39.3167 -77.2667 113° Southeast 360 414 10,700 -1,620 Descending Potomac TRACON
12:47AM 39.3000 -77.1500 100° East 311 358 9,600 -1,380 Descending Potomac TRACON
12:48AM 39.2667 -77.0500 113° Southeast 303 349 8,000 -1,560 Descending Potomac TRACON
12:49AM 39.2333 -76.9667 117° Southeast 296 341 6,700 -1,500 Descending Potomac TRACON
12:50AM 39.2000 -76.8833 117° Southeast 288 331 5,200 -1,200 Descending Potomac TRACON
12:51AM 39.1667 -76.8000 117° Southeast 257 296 4,300 -1,140 Descending Potomac TRACON
12:52AM 39.1333 -76.7167 117° Southeast 209 241 3,000 -1,140 Descending Potomac TRACON
12:53AM 39.1167 -76.6667 113° Southeast 165 190 2,100 -960 Descending Potomac TRACON
12:54AM 39.1333 -76.6333 57° Northeast 145 167 1,100 -900 Descending Potomac TRACON
12:55AM 39.1500 -76.6500 322° Northwest 114 131 400 -720 Descending Potomac TRACON
12:57AM 39.1667 -76.6667 North  Level FlightAware Approximate
01:04AM 39.1754 -76.6683 North  Level Estimated
01:05AM 39.1754 -76.6683 North  Level Estimated
01:06AM 39.1754 -76.6683 North  Level Estimated
01:07AM 39.1754 -76.6683 North  Level Estimated
01:08AM 39.1754 -76.6683 North  Level Estimated
01:09AM 39.1754 -76.6683 North  Level Estimated